sensor_id;sensor_type;location;lat;lon;timestamp;pressure;altitude;pressure_sealevel;temperature;humidity
10638;BME280;47007;49.252;8.904;2023-06-22T00:00:37;99675.44;;;21.82;100.00
10638;BME280;47007;49.252;8.904;2023-06-22T00:01:21;99681.09;;;21.80;100.00
10638;BME280;47007;49.252;8.904;2023-06-22T00:02:04;99670.53;;;21.79;100.00
10638;BME280;47007;49.252;8.904;2023-06-22T00:02:46;99671.38;;;21.79;100.00
10638;BME280;47007;49.252;8.904;2023-06-22T00:03:28;99664.91;;;21.80;100.00
10638;BME280;47007;49.252;8.904;2023-06-22T00:04:09;99665.72;;;21.81;100.00
10638;BME280;47007;49.252;8.904;2023-06-22T00:04:51;99663.28;;;21.79;100.00
10638;BME280;47007;49.252;8.904;2023-06-22T00:05:33;99667.09;;;21.83;100.00
10638;BME280;47007;49.252;8.904;2023-06-22T00:06:15;99670.59;;;21.84;100.00
10638;BME280;47007;49.252;8.904;2023-06-22T00:06:59;99671.41;;;21.84;100.00
10638;BME280;47007;49.252;8.904;2023-06-22T00:07:41;99671.16;;;21.86;100.00
10638;BME280;47007;49.252;8.904;2023-06-22T00:08:23;99673.03;;;21.85;100.00
10638;BME280;47007;49.252;8.904;2023-06-22T00:09:04;99665.75;;;21.86;100.00
10638;BME280;47007;49.252;8.904;2023-06-22T00:09:48;99667.63;;;21.85;100.00
10638;BME280;47007;49.252;8.904;2023-06-22T00:10:30;99672.22;;;21.85;100.00
10638;BME280;47007;49.252;8.904;2023-06-22T00:11:12;99670.59;;;21.84;100.00
10638;BME280;47007;49.252;8.904;2023-06-22T00:11:53;99674.31;;;21.78;100.00
10638;BME280;47007;49.252;8.904;2023-06-22T00:12:35;99671.09;;;21.81;100.00
10638;BME280;47007;49.252;8.904;2023-06-22T00:13:17;99677.88;;;21.83;100.00
10638;BME280;47007;49.252;8.904;2023-06-22T00:13:59;99676.81;;;21.84;100.00
10638;BME280;47007;49.252;8.904;2023-06-22T00:14:41;99676.81;;;21.84;100.00
10638;BME280;47007;49.252;8.904;2023-06-22T00:15:23;99673.84;;;21.86;100.00
10638;BME280;47007;49.252;8.904;2023-06-22T00:16:05;99673.59;;;21.88;100.00
10638;BME280;47007;49.252;8.904;2023-06-22T00:16:46;99675.75;;;21.91;100.00
10638;BME280;47007;49.252;8.904;2023-06-22T00:17:30;99670.91;;;21.88;100.00
10638;BME280;47007;49.252;8.904;2023-06-22T00:18:11;99682.50;;;21.93;100.00
10638;BME280;47007;49.252;8.904;2023-06-22T00:18:55;99667.41;;;21.92;100.00
10638;BME280;47007;49.252;8.904;2023-06-22T00:19:36;99673.91;;;21.96;100.00
10638;BME280;47007;49.252;8.904;2023-06-22T00:20:21;99675.31;;;21.99;100.00
10638;BME280;47007;49.252;8.904;2023-06-22T00:21:04;99682.25;;;21.95;100.00
10638;BME280;47007;49.252;8.904;2023-06-22T00:21:46;99688.69;;;21.88;100.00
10638;BME280;47007;49.252;8.904;2023-06-22T00:22:28;99687.03;;;21.82;100.00
10638;BME280;47007;49.252;8.904;2023-06-22T00:23:11;99691.31;;;21.78;100.00
10638;BME280;47007;49.252;8.904;2023-06-22T00:23:52;99687.53;;;21.74;100.00
10638;BME280;47007;49.252;8.904;2023-06-22T00:24:34;99678.28;;;21.65;100.00
10638;BME280;47007;49.252;8.904;2023-06-22T00:25:16;99691.00;;;21.70;100.00
10638;BME280;47007;49.252;8.904;2023-06-22T00:25:57;99693.94;;;21.68;100.00
10638;BME280;47007;49.252;8.904;2023-06-22T00:26:39;99680.13;;;21.60;100.00
10638;BME280;47007;49.252;8.904;2023-06-22T00:27:24;99696.13;;;21.71;100.00
10638;BME280;47007;49.252;8.904;2023-06-22T00:28:06;99695.63;;;21.74;100.00
10638;BME280;47007;49.252;8.904;2023-06-22T00:28:49;99700.47;;;21.77;100.00
10638;BME280;47007;49.252;8.904;2023-06-22T00:29:31;99704.56;;;21.80;100.00
10638;BME280;47007;49.252;8.904;2023-06-22T00:30:15;99702.97;;;21.84;100.00
10638;BME280;47007;49.252;8.904;2023-06-22T00:30:57;99705.44;;;21.91;100.00
10638;BME280;47007;49.252;8.904;2023-06-22T00:31:40;99698.69;;;21.88;100.00
10638;BME280;47007;49.252;8.904;2023-06-22T00:32:22;99700.06;;;21.96;100.00
10638;BME280;47007;49.252;8.904;2023-06-22T00:33:03;99709.81;;;21.97;100.00
10638;BME280;47007;49.252;8.904;2023-06-22T00:33:51;99706.03;;;21.98;100.00
10638;BME280;47007;49.252;8.904;2023-06-22T00:34:33;99703.34;;;21.98;100.00
10638;BME280;47007;49.252;8.904;2023-06-22T00:35:15;99704.41;;;21.97;100.00
10638;BME280;47007;49.252;8.904;2023-06-22T00:35:57;99700.06;;;21.96;100.00
10638;BME280;47007;49.252;8.904;2023-06-22T00:36:38;99700.06;;;21.96;100.00
10638;BME280;47007;49.252;8.904;2023-06-22T00:37:22;99696.00;;;21.93;100.00
10638;BME280;47007;49.252;8.904;2023-06-22T00:38:07;99699.22;;;21.90;100.00
10638;BME280;47007;49.252;8.904;2023-06-22T00:38:50;99699.19;;;21.85;100.00
10638;BME280;47007;49.252;8.904;2023-06-22T00:39:32;99698.69;;;21.88;100.00
10638;BME280;47007;49.252;8.904;2023-06-22T00:40:14;99713.53;;;21.91;100.00
10638;BME280;47007;49.252;8.904;2023-06-22T00:41:03;99705.66;;;21.84;100.00
10638;BME280;47007;49.252;8.904;2023-06-22T00:41:45;99693.47;;;21.76;100.00
10638;BME280;47007;49.252;8.904;2023-06-22T00:42:27;99701.03;;;21.79;100.00
10638;BME280;47007;49.252;8.904;2023-06-22T00:43:08;99715.09;;;21.81;100.00
10638;BME280;47007;49.252;8.904;2023-06-22T00:43:50;99722.41;;;21.86;100.00
10638;BME280;47007;49.252;8.904;2023-06-22T00:44:32;99715.13;;;21.86;100.00
10638;BME280;47007;49.252;8.904;2023-06-22T00:45:14;99722.41;;;21.86;100.00
10638;BME280;47007;49.252;8.904;2023-06-22T00:45:57;99717.22;;;21.79;100.00
10638;BME280;47007;49.252;8.904;2023-06-22T00:46:40;99729.97;;;21.84;100.00
10638;BME280;47007;49.252;8.904;2023-06-22T00:47:22;99735.66;;;21.88;100.00
10638;BME280;47007;49.252;8.904;2023-06-22T00:48:06;99734.53;;;21.83;100.00
10638;BME280;47007;49.252;8.904;2023-06-22T00:48:50;99756.69;;;21.91;100.00
10638;BME280;47007;49.252;8.904;2023-06-22T00:49:35;99754.25;;;21.84;100.00
10638;BME280;47007;49.252;8.904;2023-06-22T00:50:21;99778.03;;;21.87;100.00
10638;BME280;47007;49.252;8.904;2023-06-22T00:51:03;99781.41;;;21.77;100.00
10638;BME280;47007;49.252;8.904;2023-06-22T00:51:45;99775.91;;;21.62;100.00
10638;BME280;47007;49.252;8.904;2023-06-22T00:52:27;99806.13;;;21.64;100.00
10638;BME280;47007;49.252;8.904;2023-06-22T00:53:11;99831.44;;;21.58;100.00
10638;BME280;47007;49.252;8.904;2023-06-22T00:53:54;99847.56;;;21.53;100.00
10638;BME280;47007;49.252;8.904;2023-06-22T00:54:36;99862.91;;;21.52;100.00
10638;BME280;47007;49.252;8.904;2023-06-22T00:55:20;99893.41;;;21.53;100.00
10638;BME280;47007;49.252;8.904;2023-06-22T00:56:04;99904.16;;;21.48;100.00
10638;BME280;47007;49.252;8.904;2023-06-22T00:56:49;99934.06;;;21.46;100.00
10638;BME280;47007;49.252;8.904;2023-06-22T00:57:33;99960.72;;;21.43;100.00
10638;BME280;47007;49.252;8.904;2023-06-22T00:58:19;99974.44;;;21.41;100.00
10638;BME280;47007;49.252;8.904;2023-06-22T00:59:06;99997.06;;;21.40;100.00
10638;BME280;47007;49.252;8.904;2023-06-22T00:59:49;100007.63;;;21.42;100.00
10638;BME280;47007;49.252;8.904;2023-06-22T01:00:31;100007.81;;;21.35;100.00
10638;BME280;47007;49.252;8.904;2023-06-22T01:01:14;100037.84;;;21.44;100.00
10638;BME280;47007;49.252;8.904;2023-06-22T01:01:56;100037.03;;;21.43;100.00
10638;BME280;47007;49.252;8.904;2023-06-22T01:02:40;100043.00;;;21.45;100.00
10638;BME280;47007;49.252;8.904;2023-06-22T01:03:23;100013.69;;;21.32;100.00
10638;BME280;47007;49.252;8.904;2023-06-22T01:04:04;100055.19;;;21.48;100.00
10638;BME280;47007;49.252;8.904;2023-06-22T01:04:47;100049.78;;;21.48;100.00
10638;BME280;47007;49.252;8.904;2023-06-22T01:05:29;100043.09;;;21.50;100.00
10638;BME280;47007;49.252;8.904;2023-06-22T01:06:16;100020.97;;;21.54;100.00
10638;BME280;47007;49.252;8.904;2023-06-22T01:08:34;99891.94;;;21.67;100.00
10638;BME280;47007;49.252;8.904;2023-06-22T01:09:26;99802.34;;;21.65;100.00
10638;BME280;47007;49.252;8.904;2023-06-22T01:11:19;99740.91;;;21.40;100.00
10638;BME280;47007;49.252;8.904;2023-06-22T01:12:06;99754.81;;;21.27;100.00
10638;BME280;47007;49.252;8.904;2023-06-22T01:12:52;99764.63;;;21.16;100.00
10638;BME280;47007;49.252;8.904;2023-06-22T01:13:57;99798.44;;;21.02;100.00
10638;BME280;47007;49.252;8.904;2023-06-22T01:14:47;99823.50;;;20.81;100.00
10638;BME280;47007;49.252;8.904;2023-06-22T01:15:57;99832.88;;;20.57;100.00
10638;BME280;47007;49.252;8.904;2023-06-22T01:16:45;99837.56;;;20.44;100.00
10638;BME280;47007;49.252;8.904;2023-06-22T01:17:29;99822.66;;;20.37;100.00
10638;BME280;47007;49.252;8.904;2023-06-22T01:18:13;99799.13;;;20.16;100.00
10638;BME280;47007;49.252;8.904;2023-06-22T01:19:00;99801.75;;;20.27;100.00
10638;BME280;47007;49.252;8.904;2023-06-22T01:19:49;99789.28;;;20.21;100.00
10638;BME280;47007;49.252;8.904;2023-06-22T01:20:34;99769.81;;;20.14;100.00
10638;BME280;47007;49.252;8.904;2023-06-22T01:21:21;99753.56;;;20.09;100.00
10638;BME280;47007;49.252;8.904;2023-06-22T01:22:06;99716.56;;;19.99;100.00
10638;BME280;47007;49.252;8.904;2023-06-22T01:24:15;99719.41;;;20.09;100.00
10638;BME280;47007;49.252;8.904;2023-06-22T01:25:00;99704.88;;;20.11;100.00
10638;BME280;47007;49.252;8.904;2023-06-22T01:26:09;99703.81;;;20.12;100.00
10638;BME280;47007;49.252;8.904;2023-06-22T01:29:08;99712.72;;;20.12;100.00
10638;BME280;47007;49.252;8.904;2023-06-22T01:29:56;99711.09;;;20.11;100.00
10638;BME280;47007;49.252;8.904;2023-06-22T01:30:43;99712.16;;;20.10;100.00
10638;BME280;47007;49.252;8.904;2023-06-22T01:31:27;99714.03;;;20.09;100.00
10638;BME280;47007;49.252;8.904;2023-06-22T01:32:12;99707.25;;;20.07;100.00
10638;BME280;47007;49.252;8.904;2023-06-22T01:32:57;99720.78;;;20.12;100.00
10638;BME280;47007;49.252;8.904;2023-06-22T01:33:42;99716.22;;;20.13;100.00
10638;BME280;47007;49.252;8.904;2023-06-22T01:34:25;99720.78;;;20.12;100.00
10638;BME280;47007;49.252;8.904;2023-06-22T01:35:09;99725.94;;;20.14;100.00
10638;BME280;47007;49.252;8.904;2023-06-22T01:35:51;99726.75;;;20.14;100.00
10638;BME280;47007;49.252;8.904;2023-06-22T01:36:34;99727.28;;;20.16;100.00
10638;BME280;47007;49.252;8.904;2023-06-22T01:37:17;99728.91;;;20.17;100.00
10638;BME280;47007;49.252;8.904;2023-06-22T01:38:06;99741.31;;;20.18;100.00
10638;BME280;47007;49.252;8.904;2023-06-22T01:38:49;99725.59;;;20.10;100.00
10638;BME280;47007;49.252;8.904;2023-06-22T01:39:33;99737.22;;;20.16;100.00
10638;BME280;47007;49.252;8.904;2023-06-22T01:40:16;99739.13;;;20.15;100.00
10638;BME280;47007;49.252;8.904;2023-06-22T01:41:01;99755.28;;;20.15;100.00
10638;BME280;47007;49.252;8.904;2023-06-22T01:41:44;99751.44;;;20.11;100.00
10638;BME280;47007;49.252;8.904;2023-06-22T01:42:29;99756.59;;;20.13;100.00
10638;BME280;47007;49.252;8.904;2023-06-22T01:43:10;99759.03;;;20.14;100.00
10638;BME280;47007;49.252;8.904;2023-06-22T01:43:53;99751.59;;;20.04;100.00
10638;BME280;47007;49.252;8.904;2023-06-22T01:44:37;99770.28;;;20.11;100.00
10638;BME280;47007;49.252;8.904;2023-06-22T01:45:19;99768.09;;;20.08;100.00
10638;BME280;47007;49.252;8.904;2023-06-22T01:46:04;99775.00;;;20.04;100.00
10638;BME280;47007;49.252;8.904;2023-06-22T01:46:46;99778.22;;;20.01;100.00
10638;BME280;47007;49.252;8.904;2023-06-22T01:47:31;99778.94;;;19.96;100.00
10638;BME280;47007;49.252;8.904;2023-06-22T01:48:15;99778.13;;;19.96;100.00
10638;BME280;47007;49.252;8.904;2023-06-22T01:49:01;99781.06;;;19.94;100.00
10638;BME280;47007;49.252;8.904;2023-06-22T01:49:43;99785.13;;;19.97;100.00
10638;BME280;47007;49.252;8.904;2023-06-22T01:50:28;99773.31;;;19.98;100.00
10638;BME280;47007;49.252;8.904;2023-06-22T01:51:10;99761.34;;;19.89;100.00
10638;BME280;47007;49.252;8.904;2023-06-22T01:51:53;99771.19;;;20.00;100.00
10638;BME280;47007;49.252;8.904;2023-06-22T01:52:35;99761.09;;;19.90;100.00
10638;BME280;47007;49.252;8.904;2023-06-22T01:53:17;99779.09;;;20.06;100.00
10638;BME280;47007;49.252;8.904;2023-06-22T01:53:59;99778.59;;;20.09;100.00
10638;BME280;47007;49.252;8.904;2023-06-22T01:54:41;99768.66;;;20.10;100.00
10638;BME280;47007;49.252;8.904;2023-06-22T01:55:22;99782.19;;;20.15;100.00
10638;BME280;47007;49.252;8.904;2023-06-22T01:56:04;99781.09;;;20.16;100.00
10638;BME280;47007;49.252;8.904;2023-06-22T01:56:46;99778.16;;;20.18;100.00
10638;BME280;47007;49.252;8.904;2023-06-22T01:57:28;99777.34;;;20.17;100.00
10638;BME280;47007;49.252;8.904;2023-06-22T01:58:10;99781.19;;;20.21;100.00
10638;BME280;47007;49.252;8.904;2023-06-22T01:59:01;99781.19;;;20.21;100.00
10638;BME280;47007;49.252;8.904;2023-06-22T01:59:55;99773.84;;;20.17;100.00
10638;BME280;47007;49.252;8.904;2023-06-22T02:00:44;99769.84;;;20.19;100.00
10638;BME280;47007;49.252;8.904;2023-06-22T02:01:43;99777.69;;;20.21;100.00
10638;BME280;47007;49.252;8.904;2023-06-22T02:02:33;99773.59;;;20.18;100.00
10638;BME280;47007;49.252;8.904;2023-06-22T02:03:19;99767.66;;;20.16;100.00
10638;BME280;47007;49.252;8.904;2023-06-22T02:04:13;99761.63;;;20.09;100.00
10638;BME280;47007;49.252;8.904;2023-06-22T02:05:04;99771.69;;;20.14;100.00
10638;BME280;47007;49.252;8.904;2023-06-22T02:05:52;99767.03;;;20.09;100.00
10638;BME280;47007;49.252;8.904;2023-06-22T02:06:39;99773.56;;;20.13;100.00
10638;BME280;47007;49.252;8.904;2023-06-22T02:07:23;99770.84;;;20.13;100.00
10638;BME280;47007;49.252;8.904;2023-06-22T02:08:09;99770.28;;;20.11;100.00
10638;BME280;47007;49.252;8.904;2023-06-22T02:08:56;99772.97;;;20.11;100.00
10638;BME280;47007;49.252;8.904;2023-06-22T02:09:42;99773.22;;;20.09;100.00
10638;BME280;47007;49.252;8.904;2023-06-22T02:10:28;99770.78;;;20.08;100.00
10638;BME280;47007;49.252;8.904;2023-06-22T02:11:13;99767.50;;;20.06;100.00
10638;BME280;47007;49.252;8.904;2023-06-22T02:12:01;99768.31;;;20.06;100.00
10638;BME280;47007;49.252;8.904;2023-06-22T02:12:44;99782.00;;;20.05;100.00
10638;BME280;47007;49.252;8.904;2023-06-22T02:13:27;99779.56;;;20.03;100.00
10638;BME280;47007;49.252;8.904;2023-06-22T02:14:09;99775.53;;;20.01;100.00
10638;BME280;47007;49.252;8.904;2023-06-22T02:14:53;99781.19;;;20.04;100.00
10638;BME280;47007;49.252;8.904;2023-06-22T02:15:36;99782.25;;;20.03;100.00
10638;BME280;47007;49.252;8.904;2023-06-22T02:16:18;99788.72;;;20.02;100.00
10638;BME280;47007;49.252;8.904;2023-06-22T02:17:00;99791.41;;;20.02;100.00
10638;BME280;47007;49.252;8.904;2023-06-22T02:17:42;99784.66;;;20.00;100.00
10638;BME280;47007;49.252;8.904;2023-06-22T02:18:27;99777.41;;;20.00;100.00
10638;BME280;47007;49.252;8.904;2023-06-22T02:19:09;99785.28;;;20.07;100.00
10638;BME280;47007;49.252;8.904;2023-06-22T02:19:51;99785.28;;;20.07;100.00
10638;BME280;47007;49.252;8.904;2023-06-22T02:20:36;99782.59;;;20.07;100.00
10638;BME280;47007;49.252;8.904;2023-06-22T02:21:19;99770.94;;;20.01;100.00
10638;BME280;47007;49.252;8.904;2023-06-22T02:22:01;99781.53;;;20.08;100.00
10638;BME280;47007;49.252;8.904;2023-06-22T02:22:45;99773.47;;;20.08;100.00
10638;BME280;47007;49.252;8.904;2023-06-22T02:23:27;99773.69;;;20.06;100.00
10638;BME280;47007;49.252;8.904;2023-06-22T02:24:09;99768.50;;;20.00;100.00
10638;BME280;47007;49.252;8.904;2023-06-22T02:24:51;99776.16;;;20.08;100.00
10638;BME280;47007;49.252;8.904;2023-06-22T02:25:35;99780.16;;;20.05;100.00
10638;BME280;47007;49.252;8.904;2023-06-22T02:26:17;99781.78;;;20.06;100.00
10638;BME280;47007;49.252;8.904;2023-06-22T02:27:00;99782.53;;;20.02;100.00
10638;BME280;47007;49.252;8.904;2023-06-22T02:27:42;99783.84;;;19.99;100.00
10638;BME280;47007;49.252;8.904;2023-06-22T02:28:24;99788.06;;;19.95;100.00
10638;BME280;47007;49.252;8.904;2023-06-22T02:29:08;99785.56;;;19.89;100.00
10638;BME280;47007;49.252;8.904;2023-06-22T02:29:50;99784.97;;;19.87;100.00
10638;BME280;47007;49.252;8.904;2023-06-22T02:30:32;99783.00;;;19.82;100.00
10638;BME280;47007;49.252;8.904;2023-06-22T02:31:13;99792.13;;;19.81;100.00
10638;BME280;47007;49.252;8.904;2023-06-22T02:31:55;99780.97;;;19.72;100.00
10638;BME280;47007;49.252;8.904;2023-06-22T02:32:40;99794.50;;;19.78;100.00
10638;BME280;47007;49.252;8.904;2023-06-22T02:33:23;99784.13;;;19.69;100.00
10638;BME280;47007;49.252;8.904;2023-06-22T02:34:05;99787.41;;;19.71;100.00
10638;BME280;47007;49.252;8.904;2023-06-22T02:34:46;99784.63;;;19.66;100.00
10638;BME280;47007;49.252;8.904;2023-06-22T02:35:30;99794.19;;;19.74;100.00
10638;BME280;47007;49.252;8.904;2023-06-22T02:36:20;99793.69;;;19.77;100.00
10638;BME280;47007;49.252;8.904;2023-06-22T02:37:04;99788.88;;;19.79;100.00
10638;BME280;47007;49.252;8.904;2023-06-22T02:37:46;99792.13;;;19.81;100.00
10638;BME280;47007;49.252;8.904;2023-06-22T02:38:28;99794.59;;;19.83;100.00
10638;BME280;47007;49.252;8.904;2023-06-22T02:39:14;99788.72;;;19.86;100.00
10638;BME280;47007;49.252;8.904;2023-06-22T02:39:57;99785.47;;;19.84;100.00
10638;BME280;47007;49.252;8.904;2023-06-22T02:40:42;99789.44;;;19.81;100.00
10638;BME280;47007;49.252;8.904;2023-06-22T02:41:24;99791.88;;;19.83;100.00
10638;BME280;47007;49.252;8.904;2023-06-22T02:42:06;99783.81;;;19.83;100.00
10638;BME280;47007;49.252;8.904;2023-06-22T02:42:48;99780.31;;;19.82;100.00
10638;BME280;47007;49.252;8.904;2023-06-22T02:43:30;99774.38;;;19.80;100.00
10638;BME280;47007;49.252;8.904;2023-06-22T02:44:11;99782.19;;;19.82;100.00
10638;BME280;47007;49.252;8.904;2023-06-22T02:44:53;99773.00;;;19.78;100.00
10638;BME280;47007;49.252;8.904;2023-06-22T02:45:35;99781.06;;;19.78;100.00
10638;BME280;47007;49.252;8.904;2023-06-22T02:46:18;99776.22;;;19.80;100.00
10638;BME280;47007;49.252;8.904;2023-06-22T02:46:59;99764.94;;;19.78;100.00
10638;BME280;47007;49.252;8.904;2023-06-22T02:47:41;99768.41;;;19.78;100.00
10638;BME280;47007;49.252;8.904;2023-06-22T02:48:23;99769.78;;;19.81;100.00
10638;BME280;47007;49.252;8.904;2023-06-22T02:49:08;99759.56;;;19.78;100.00
10638;BME280;47007;49.252;8.904;2023-06-22T02:49:50;99765.56;;;19.85;100.00
10638;BME280;47007;49.252;8.904;2023-06-22T02:50:32;99756.44;;;19.86;100.00
10638;BME280;47007;49.252;8.904;2023-06-22T02:51:14;99768.34;;;19.90;100.00
10638;BME280;47007;49.252;8.904;2023-06-22T02:51:57;99769.94;;;19.91;100.00
10638;BME280;47007;49.252;8.904;2023-06-22T02:52:39;99758.41;;;19.90;100.00
10638;BME280;47007;49.252;8.904;2023-06-22T02:53:21;99752.69;;;19.87;100.00
10638;BME280;47007;49.252;8.904;2023-06-22T02:54:03;99764.09;;;19.94;100.00
10638;BME280;47007;49.252;8.904;2023-06-22T02:54:45;99758.72;;;19.94;100.00
10638;BME280;47007;49.252;8.904;2023-06-22T02:55:28;99759.28;;;19.96;100.00
10638;BME280;47007;49.252;8.904;2023-06-22T02:56:12;99761.97;;;19.96;100.00
10638;BME280;47007;49.252;8.904;2023-06-22T02:56:54;99743.56;;;19.88;100.00
10638;BME280;47007;49.252;8.904;2023-06-22T02:57:36;99755.28;;;19.98;100.00
10638;BME280;47007;49.252;8.904;2023-06-22T02:58:25;99749.91;;;19.98;100.00
10638;BME280;47007;49.252;8.904;2023-06-22T02:59:07;99752.84;;;19.97;100.00
10638;BME280;47007;49.252;8.904;2023-06-22T02:59:52;99740.94;;;19.93;100.00
10638;BME280;47007;49.252;8.904;2023-06-22T03:00:34;99751.53;;;19.99;100.00
10638;BME280;47007;49.252;8.904;2023-06-22T03:01:15;99750.72;;;19.99;100.00
10638;BME280;47007;49.252;8.904;2023-06-22T03:02:01;99738.81;;;19.95;100.00
10638;BME280;47007;49.252;8.904;2023-06-22T03:02:47;99745.34;;;19.99;100.00
10638;BME280;47007;49.252;8.904;2023-06-22T03:03:29;99739.63;;;19.95;100.00
10638;BME280;47007;49.252;8.904;2023-06-22T03:04:12;99737.03;;;20.00;100.00
10638;BME280;47007;49.252;8.904;2023-06-22T03:04:55;99737.84;;;20.01;100.00
10638;BME280;47007;49.252;8.904;2023-06-22T03:05:36;99730.03;;;19.99;100.00
10638;BME280;47007;49.252;8.904;2023-06-22T03:06:22;99727.09;;;20.01;100.00
10638;BME280;47007;49.252;8.904;2023-06-22T03:07:05;99736.28;;;20.05;100.00
10638;BME280;47007;49.252;8.904;2023-06-22T03:07:48;99740.59;;;20.06;100.00
10638;BME280;47007;49.252;8.904;2023-06-22T03:08:30;99738.47;;;20.08;100.00
10638;BME280;47007;49.252;8.904;2023-06-22T03:09:12;99729.53;;;20.02;100.00
10638;BME280;47007;49.252;8.904;2023-06-22T03:09:54;99747.38;;;20.08;100.00
10638;BME280;47007;49.252;8.904;2023-06-22T03:10:35;99743.88;;;20.08;100.00
10638;BME280;47007;49.252;8.904;2023-06-22T03:11:17;99738.97;;;20.05;100.00
10638;BME280;47007;49.252;8.904;2023-06-22T03:11:59;99753.00;;;20.07;100.00
10638;BME280;47007;49.252;8.904;2023-06-22T03:12:48;99743.28;;;20.06;100.00
10638;BME280;47007;49.252;8.904;2023-06-22T03:13:30;99738.66;;;20.01;100.00
10638;BME280;47007;49.252;8.904;2023-06-22T03:14:12;99749.72;;;20.05;100.00
10638;BME280;47007;49.252;8.904;2023-06-22T03:14:54;99748.09;;;20.04;100.00
10638;BME280;47007;49.252;8.904;2023-06-22T03:15:35;99737.53;;;19.97;100.00
10638;BME280;47007;49.252;8.904;2023-06-22T03:16:19;99745.16;;;20.05;100.00
10638;BME280;47007;49.252;8.904;2023-06-22T03:17:04;99751.84;;;20.03;100.00
10638;BME280;47007;49.252;8.904;2023-06-22T03:17:46;99741.75;;;19.93;100.00
10638;BME280;47007;49.252;8.904;2023-06-22T03:18:28;99750.41;;;19.95;100.00
10638;BME280;47007;49.252;8.904;2023-06-22T03:19:10;99735.97;;;19.85;100.00
10638;BME280;47007;49.252;8.904;2023-06-22T03:19:52;99739.31;;;19.92;100.00
10638;BME280;47007;49.252;8.904;2023-06-22T03:20:34;99744.16;;;19.90;100.00
10638;BME280;47007;49.252;8.904;2023-06-22T03:21:15;99744.28;;;19.83;100.00
10638;BME280;47007;49.252;8.904;2023-06-22T03:22:00;99751.06;;;19.86;100.00
10638;BME280;47007;49.252;8.904;2023-06-22T03:22:41;99748.84;;;19.83;100.00
10638;BME280;47007;49.252;8.904;2023-06-22T03:23:24;99744.19;;;19.78;100.00
10638;BME280;47007;49.252;8.904;2023-06-22T03:24:06;99729.53;;;19.69;100.00
10638;BME280;47007;49.252;8.904;2023-06-22T03:24:48;99742.25;;;19.73;100.00
10638;BME280;47007;49.252;8.904;2023-06-22T03:25:30;99731.19;;;19.70;100.00
10638;BME280;47007;49.252;8.904;2023-06-22T03:26:12;99731.75;;;19.72;100.00
10638;BME280;47007;49.252;8.904;2023-06-22T03:26:54;99726.13;;;19.73;100.00
10638;BME280;47007;49.252;8.904;2023-06-22T03:27:37;99737.53;;;19.81;100.00
10638;BME280;47007;49.252;8.904;2023-06-22T03:28:21;99737.84;;;19.84;100.00
10638;BME280;47007;49.252;8.904;2023-06-22T03:29:03;99725.66;;;19.77;100.00
10638;BME280;47007;49.252;8.904;2023-06-22T03:29:45;99744.97;;;19.90;100.00
10638;BME280;47007;49.252;8.904;2023-06-22T03:30:27;99742.81;;;19.92;100.00
10638;BME280;47007;49.252;8.904;2023-06-22T03:31:09;99744.44;;;19.93;100.00
10638;BME280;47007;49.252;8.904;2023-06-22T03:31:54;99739.06;;;19.93;100.00
10638;BME280;47007;49.252;8.904;2023-06-22T03:32:38;99742.09;;;19.97;100.00
10638;BME280;47007;49.252;8.904;2023-06-22T03:33:20;99737.53;;;19.97;100.00
10638;BME280;47007;49.252;8.904;2023-06-22T03:34:03;99728.06;;;19.95;100.00
10638;BME280;47007;49.252;8.904;2023-06-22T03:34:48;99723.00;;;19.98;100.00
10638;BME280;47007;49.252;8.904;2023-06-22T03:35:31;99721.94;;;19.99;100.00
10638;BME280;47007;49.252;8.904;2023-06-22T03:36:12;99727.16;;;20.06;100.00
10638;BME280;47007;49.252;8.904;2023-06-22T03:36:54;99712.06;;;20.05;100.00
10638;BME280;47007;49.252;8.904;2023-06-22T03:37:36;99716.13;;;20.07;100.00
10638;BME280;47007;49.252;8.904;2023-06-22T03:38:19;99733.66;;;20.10;100.00
10638;BME280;47007;49.252;8.904;2023-06-22T03:39:01;99719.41;;;20.09;100.00
10638;BME280;47007;49.252;8.904;2023-06-22T03:39:43;99733.44;;;20.12;100.00
10638;BME280;47007;49.252;8.904;2023-06-22T03:40:25;99722.66;;;20.12;100.00
10638;BME280;47007;49.252;8.904;2023-06-22T03:41:07;99732.03;;;20.09;100.00
10638;BME280;47007;49.252;8.904;2023-06-22T03:41:52;99724.94;;;20.03;100.00
10638;BME280;47007;49.252;8.904;2023-06-22T03:42:34;99727.47;;;20.09;100.00
10638;BME280;47007;49.252;8.904;2023-06-22T03:43:17;99727.72;;;20.08;100.00
10638;BME280;47007;49.252;8.904;2023-06-22T03:43:59;99727.72;;;20.08;100.00
10638;BME280;47007;49.252;8.904;2023-06-22T03:44:41;99727.72;;;20.08;100.00
10638;BME280;47007;49.252;8.904;2023-06-22T03:45:22;99730.66;;;20.06;100.00
10638;BME280;47007;49.252;8.904;2023-06-22T03:46:04;99733.59;;;20.05;100.00
10638;BME280;47007;49.252;8.904;2023-06-22T03:46:46;99721.94;;;19.99;100.00
10638;BME280;47007;49.252;8.904;2023-06-22T03:47:28;99725.22;;;20.01;100.00
10638;BME280;47007;49.252;8.904;2023-06-22T03:48:12;99731.13;;;20.03;100.00
10638;BME280;47007;49.252;8.904;2023-06-22T03:48:54;99727.63;;;20.03;100.00
10638;BME280;47007;49.252;8.904;2023-06-22T03:49:35;99723.88;;;20.04;100.00
10638;BME280;47007;49.252;8.904;2023-06-22T03:50:17;99727.72;;;20.08;100.00
10638;BME280;47007;49.252;8.904;2023-06-22T03:51:02;99722.56;;;20.06;100.00
10638;BME280;47007;49.252;8.904;2023-06-22T03:51:47;99726.41;;;20.11;100.00
10638;BME280;47007;49.252;8.904;2023-06-22T03:52:29;99716.88;;;20.03;100.00
10638;BME280;47007;49.252;8.904;2023-06-22T03:53:11;99722.66;;;20.12;100.00
10638;BME280;47007;49.252;8.904;2023-06-22T03:53:54;99724.28;;;20.13;100.00
10638;BME280;47007;49.252;8.904;2023-06-22T03:54:36;99736.69;;;20.14;100.00